METAR Data

Data at: 1107 UTC 21 Apr 2021

METAR for:KRKD (Rockland/Knox Cnty, ME, US)
Text:KRKD 211056Z AUTO 05007KT 10SM CLR 08/04 A2985 RMK AO2 SLP109 T00780044
Temperature: 7.8°C ( 46°F)
Dewpoint: 4.4°C ( 40°F) [RH = 79%]
Pressure (altimeter):29.85 inches Hg (1010.9 mb) [Sea level pressure: 1010.9 mb]
Winds:from the NE (50 degrees) at 8 MPH (7 knots; 3.6 m/s)
Visibility:10 or more sm (16+ km)
Ceiling:at least 12,000 feet AGL
Clouds:sky clear below 12,000 feet AGL
QC Flag:automated observation with no human augmentation